West Bingham, Pennsylvania
Current Conditions -  °F | °C
As of 9:56 PM on Saturday 22 Nov 2014 (Local Time) from KELZ Reporting Station
Light Rain Light Rain  
Wind Chill: 31°   Ceiling: 2500
Heat Index: 39°   Visibility: 10mi
Dew Point: 35°   Wind: 15mph
Humidity: 86%   Direction: 220°SW
Pressure: 30.04"   Gusts: NA
Location:  41.915°N, 77.8855°W
Report Text: KELZ 230256Z AUTO 22013KT 10SM -RA BKN025 OVC039 04/02 A3004 RMK AO2 SLP193 P0001 60001 T00390017 50003
Loading
Personal Weather Stations






























Interactive Weather Map New forecast layout! Learn more

10-Day Weather Forecast

Advertisements
Track Severe Weather on mobile